sensor_id;sensor_type;location;lat;lon;timestamp;P1;durP1;ratioP1;P2;durP2;ratioP2
49458;SDS011;35354;51.296;16.924;2023-06-10T00:01:18;17.23;;;14.65;;
49458;SDS011;35354;51.296;16.924;2023-06-10T00:03:43;15.05;;;13.55;;
49458;SDS011;35354;51.296;16.924;2023-06-10T00:06:09;16.20;;;14.35;;
49458;SDS011;35354;51.296;16.924;2023-06-10T00:08:34;14.50;;;13.20;;
49458;SDS011;35354;51.296;16.924;2023-06-10T00:10:59;14.50;;;13.18;;
49458;SDS011;35354;51.296;16.924;2023-06-10T00:13:25;15.05;;;13.65;;
49458;SDS011;35354;51.296;16.924;2023-06-10T00:15:50;14.48;;;12.98;;
49458;SDS011;35354;51.296;16.924;2023-06-10T00:18:16;13.98;;;12.68;;
49458;SDS011;35354;51.296;16.924;2023-06-10T00:20:42;14.05;;;12.65;;
49458;SDS011;35354;51.296;16.924;2023-06-10T00:23:07;14.32;;;12.90;;
49458;SDS011;35354;51.296;16.924;2023-06-10T00:25:34;15.10;;;13.57;;
49458;SDS011;35354;51.296;16.924;2023-06-10T00:27:59;15.38;;;13.55;;
49458;SDS011;35354;51.296;16.924;2023-06-10T00:30:25;14.88;;;13.40;;
49458;SDS011;35354;51.296;16.924;2023-06-10T00:32:51;13.25;;;11.98;;
49458;SDS011;35354;51.296;16.924;2023-06-10T00:35:16;14.23;;;12.88;;
49458;SDS011;35354;51.296;16.924;2023-06-10T00:37:42;14.65;;;13.18;;
49458;SDS011;35354;51.296;16.924;2023-06-10T00:40:07;14.68;;;13.38;;
49458;SDS011;35354;51.296;16.924;2023-06-10T00:42:36;15.07;;;13.55;;
49458;SDS011;35354;51.296;16.924;2023-06-10T00:45:02;13.70;;;12.48;;
49458;SDS011;35354;51.296;16.924;2023-06-10T00:47:28;15.23;;;13.68;;
49458;SDS011;35354;51.296;16.924;2023-06-10T00:49:53;14.00;;;12.70;;
49458;SDS011;35354;51.296;16.924;2023-06-10T00:52:19;15.52;;;13.93;;
49458;SDS011;35354;51.296;16.924;2023-06-10T00:54:49;15.73;;;14.25;;
49458;SDS011;35354;51.296;16.924;2023-06-10T00:57:14;15.70;;;14.10;;
49458;SDS011;35354;51.296;16.924;2023-06-10T00:59:41;15.95;;;14.55;;
49458;SDS011;35354;51.296;16.924;2023-06-10T01:02:08;14.38;;;12.95;;
49458;SDS011;35354;51.296;16.924;2023-06-10T01:04:34;14.45;;;13.05;;
49458;SDS011;35354;51.296;16.924;2023-06-10T01:07:08;15.65;;;14.20;;
49458;SDS011;35354;51.296;16.924;2023-06-10T01:09:45;15.20;;;13.70;;
49458;SDS011;35354;51.296;16.924;2023-06-10T01:15:02;15.63;;;14.10;;
49458;SDS011;35354;51.296;16.924;2023-06-10T01:17:29;16.23;;;14.50;;
49458;SDS011;35354;51.296;16.924;2023-06-10T01:19:58;17.90;;;15.52;;
49458;SDS011;35354;51.296;16.924;2023-06-10T01:22:24;17.38;;;14.75;;
49458;SDS011;35354;51.296;16.924;2023-06-10T01:24:53;15.90;;;14.45;;
49458;SDS011;35354;51.296;16.924;2023-06-10T01:27:23;15.55;;;14.05;;
49458;SDS011;35354;51.296;16.924;2023-06-10T01:30:04;16.63;;;14.90;;
49458;SDS011;35354;51.296;16.924;2023-06-10T01:32:45;16.40;;;14.73;;
49458;SDS011;35354;51.296;16.924;2023-06-10T01:35:15;15.98;;;14.57;;
49458;SDS011;35354;51.296;16.924;2023-06-10T01:37:41;15.77;;;14.27;;
49458;SDS011;35354;51.296;16.924;2023-06-10T01:40:10;16.05;;;14.50;;
49458;SDS011;35354;51.296;16.924;2023-06-10T01:42:37;19.52;;;15.82;;
49458;SDS011;35354;51.296;16.924;2023-06-10T01:45:02;15.75;;;14.25;;
49458;SDS011;35354;51.296;16.924;2023-06-10T01:47:28;15.88;;;14.30;;
49458;SDS011;35354;51.296;16.924;2023-06-10T01:49:54;16.23;;;14.75;;
49458;SDS011;35354;51.296;16.924;2023-06-10T01:52:19;15.98;;;14.50;;
49458;SDS011;35354;51.296;16.924;2023-06-10T01:54:45;16.50;;;15.05;;
49458;SDS011;35354;51.296;16.924;2023-06-10T01:57:10;17.77;;;15.98;;
49458;SDS011;35354;51.296;16.924;2023-06-10T01:59:35;16.45;;;14.85;;
49458;SDS011;35354;51.296;16.924;2023-06-10T02:02:02;17.52;;;15.82;;
49458;SDS011;35354;51.296;16.924;2023-06-10T02:04:28;17.08;;;15.35;;
49458;SDS011;35354;51.296;16.924;2023-06-10T02:06:54;17.02;;;15.40;;
49458;SDS011;35354;51.296;16.924;2023-06-10T02:09:20;16.10;;;14.65;;
49458;SDS011;35354;51.296;16.924;2023-06-10T02:11:45;18.92;;;16.67;;
49458;SDS011;35354;51.296;16.924;2023-06-10T02:14:11;17.90;;;15.93;;
49458;SDS011;35354;51.296;16.924;2023-06-10T02:16:36;17.83;;;16.23;;
49458;SDS011;35354;51.296;16.924;2023-06-10T02:19:02;19.17;;;17.38;;
49458;SDS011;35354;51.296;16.924;2023-06-10T02:21:30;18.42;;;16.58;;
49458;SDS011;35354;51.296;16.924;2023-06-10T02:23:56;17.42;;;15.63;;
49458;SDS011;35354;51.296;16.924;2023-06-10T02:26:21;19.17;;;16.92;;
49458;SDS011;35354;51.296;16.924;2023-06-10T02:28:48;20.45;;;18.35;;
49458;SDS011;35354;51.296;16.924;2023-06-10T02:31:13;18.02;;;16.25;;
49458;SDS011;35354;51.296;16.924;2023-06-10T02:33:39;18.75;;;16.85;;
49458;SDS011;35354;51.296;16.924;2023-06-10T02:36:05;19.77;;;17.73;;
49458;SDS011;35354;51.296;16.924;2023-06-10T02:38:31;18.40;;;16.70;;
49458;SDS011;35354;51.296;16.924;2023-06-10T02:40:56;20.50;;;18.42;;
49458;SDS011;35354;51.296;16.924;2023-06-10T02:43:21;20.35;;;18.35;;
49458;SDS011;35354;51.296;16.924;2023-06-10T02:45:47;21.15;;;18.67;;
49458;SDS011;35354;51.296;16.924;2023-06-10T02:48:12;21.25;;;19.15;;
49458;SDS011;35354;51.296;16.924;2023-06-10T02:50:37;21.38;;;19.25;;
49458;SDS011;35354;51.296;16.924;2023-06-10T02:53:05;20.58;;;18.60;;
49458;SDS011;35354;51.296;16.924;2023-06-10T02:55:30;20.80;;;18.80;;
49458;SDS011;35354;51.296;16.924;2023-06-10T02:57:55;22.88;;;20.63;;
49458;SDS011;35354;51.296;16.924;2023-06-10T03:00:21;25.17;;;21.63;;
49458;SDS011;35354;51.296;16.924;2023-06-10T03:02:47;24.05;;;21.55;;
49458;SDS011;35354;51.296;16.924;2023-06-10T03:05:13;21.95;;;20.02;;
49458;SDS011;35354;51.296;16.924;2023-06-10T03:07:38;24.92;;;22.52;;
49458;SDS011;35354;51.296;16.924;2023-06-10T03:10:04;25.35;;;23.05;;
49458;SDS011;35354;51.296;16.924;2023-06-10T03:12:30;25.13;;;20.75;;
49458;SDS011;35354;51.296;16.924;2023-06-10T03:14:55;24.83;;;22.33;;
49458;SDS011;35354;51.296;16.924;2023-06-10T03:17:21;26.75;;;23.00;;
49458;SDS011;35354;51.296;16.924;2023-06-10T03:19:46;24.65;;;22.05;;
49458;SDS011;35354;51.296;16.924;2023-06-10T03:22:12;24.10;;;21.55;;
49458;SDS011;35354;51.296;16.924;2023-06-10T03:24:39;23.77;;;21.58;;
49458;SDS011;35354;51.296;16.924;2023-06-10T03:27:08;24.95;;;22.48;;
49458;SDS011;35354;51.296;16.924;2023-06-10T03:29:34;24.33;;;21.92;;
49458;SDS011;35354;51.296;16.924;2023-06-10T03:32:00;23.25;;;21.10;;
49458;SDS011;35354;51.296;16.924;2023-06-10T03:34:26;25.77;;;23.25;;
49458;SDS011;35354;51.296;16.924;2023-06-10T03:36:51;25.05;;;22.80;;
49458;SDS011;35354;51.296;16.924;2023-06-10T03:39:17;23.67;;;21.13;;
49458;SDS011;35354;51.296;16.924;2023-06-10T03:41:42;25.38;;;22.77;;
49458;SDS011;35354;51.296;16.924;2023-06-10T03:44:07;23.70;;;21.40;;
49458;SDS011;35354;51.296;16.924;2023-06-10T03:46:33;23.33;;;20.77;;
49458;SDS011;35354;51.296;16.924;2023-06-10T03:48:58;22.27;;;20.08;;
49458;SDS011;35354;51.296;16.924;2023-06-10T03:51:25;21.27;;;19.27;;
49458;SDS011;35354;51.296;16.924;2023-06-10T03:53:51;21.42;;;19.40;;
49458;SDS011;35354;51.296;16.924;2023-06-10T03:56:16;21.90;;;19.67;;
49458;SDS011;35354;51.296;16.924;2023-06-10T03:58:42;19.85;;;17.83;;
49458;SDS011;35354;51.296;16.924;2023-06-10T04:01:07;18.50;;;16.70;;
49458;SDS011;35354;51.296;16.924;2023-06-10T04:03:32;21.08;;;18.88;;
49458;SDS011;35354;51.296;16.924;2023-06-10T04:05:58;19.23;;;17.35;;
49458;SDS011;35354;51.296;16.924;2023-06-10T04:08:23;19.08;;;17.08;;
49458;SDS011;35354;51.296;16.924;2023-06-10T04:10:48;19.92;;;17.80;;
49458;SDS011;35354;51.296;16.924;2023-06-10T04:13:14;17.88;;;16.17;;
49458;SDS011;35354;51.296;16.924;2023-06-10T04:15:40;19.13;;;16.42;;
49458;SDS011;35354;51.296;16.924;2023-06-10T04:18:06;17.83;;;15.98;;
49458;SDS011;35354;51.296;16.924;2023-06-10T04:20:31;18.38;;;16.50;;
49458;SDS011;35354;51.296;16.924;2023-06-10T04:22:57;17.52;;;15.80;;
49458;SDS011;35354;51.296;16.924;2023-06-10T04:25:22;18.15;;;16.42;;
49458;SDS011;35354;51.296;16.924;2023-06-10T04:27:49;18.45;;;16.70;;
49458;SDS011;35354;51.296;16.924;2023-06-10T04:30:15;17.52;;;15.90;;
49458;SDS011;35354;51.296;16.924;2023-06-10T04:32:41;18.58;;;16.80;;
49458;SDS011;35354;51.296;16.924;2023-06-10T04:35:06;17.30;;;15.80;;
49458;SDS011;35354;51.296;16.924;2023-06-10T04:37:32;19.50;;;17.50;;
49458;SDS011;35354;51.296;16.924;2023-06-10T04:39:58;17.13;;;15.55;;
49458;SDS011;35354;51.296;16.924;2023-06-10T04:42:24;17.38;;;15.57;;
49458;SDS011;35354;51.296;16.924;2023-06-10T04:44:49;18.25;;;16.55;;
49458;SDS011;35354;51.296;16.924;2023-06-10T04:47:15;19.40;;;17.27;;
49458;SDS011;35354;51.296;16.924;2023-06-10T04:49:42;18.08;;;16.17;;
49458;SDS011;35354;51.296;16.924;2023-06-10T04:52:07;19.13;;;17.05;;
49458;SDS011;35354;51.296;16.924;2023-06-10T04:54:32;17.75;;;15.90;;
49458;SDS011;35354;51.296;16.924;2023-06-10T04:56:58;14.52;;;13.02;;
49458;SDS011;35354;51.296;16.924;2023-06-10T04:59:25;17.38;;;15.73;;
49458;SDS011;35354;51.296;16.924;2023-06-10T05:01:50;18.02;;;15.13;;
49458;SDS011;35354;51.296;16.924;2023-06-10T05:04:15;18.92;;;15.30;;
49458;SDS011;35354;51.296;16.924;2023-06-10T05:06:41;17.58;;;15.85;;
49458;SDS011;35354;51.296;16.924;2023-06-10T05:09:06;18.55;;;16.75;;
49458;SDS011;35354;51.296;16.924;2023-06-10T05:11:31;17.65;;;15.85;;
49458;SDS011;35354;51.296;16.924;2023-06-10T05:13:57;16.58;;;14.98;;
49458;SDS011;35354;51.296;16.924;2023-06-10T05:16:22;16.65;;;15.15;;
49458;SDS011;35354;51.296;16.924;2023-06-10T05:18:48;18.33;;;16.52;;
49458;SDS011;35354;51.296;16.924;2023-06-10T05:21:13;18.05;;;16.35;;
49458;SDS011;35354;51.296;16.924;2023-06-10T05:23:38;18.08;;;16.38;;
49458;SDS011;35354;51.296;16.924;2023-06-10T05:26:04;17.98;;;16.10;;
49458;SDS011;35354;51.296;16.924;2023-06-10T05:28:29;17.92;;;16.10;;
49458;SDS011;35354;51.296;16.924;2023-06-10T05:30:54;17.95;;;16.23;;
49458;SDS011;35354;51.296;16.924;2023-06-10T05:33:20;16.50;;;14.90;;
49458;SDS011;35354;51.296;16.924;2023-06-10T05:35:45;16.80;;;15.18;;
49458;SDS011;35354;51.296;16.924;2023-06-10T05:38:10;16.33;;;14.60;;
49458;SDS011;35354;51.296;16.924;2023-06-10T05:40:36;14.80;;;13.30;;
49458;SDS011;35354;51.296;16.924;2023-06-10T05:43:01;16.40;;;14.80;;
49458;SDS011;35354;51.296;16.924;2023-06-10T05:45:27;14.85;;;13.35;;
49458;SDS011;35354;51.296;16.924;2023-06-10T05:47:52;15.35;;;13.93;;
49458;SDS011;35354;51.296;16.924;2023-06-10T05:50:18;15.05;;;13.60;;
49458;SDS011;35354;51.296;16.924;2023-06-10T05:52:43;16.55;;;13.50;;
49458;SDS011;35354;51.296;16.924;2023-06-10T05:55:09;16.60;;;15.00;;
49458;SDS011;35354;51.296;16.924;2023-06-10T05:57:34;16.77;;;15.18;;
49458;SDS011;35354;51.296;16.924;2023-06-10T06:00:00;17.38;;;15.68;;
49458;SDS011;35354;51.296;16.924;2023-06-10T06:02:25;16.50;;;14.82;;
49458;SDS011;35354;51.296;16.924;2023-06-10T06:04:50;15.27;;;13.88;;
49458;SDS011;35354;51.296;16.924;2023-06-10T06:07:16;16.23;;;14.60;;
49458;SDS011;35354;51.296;16.924;2023-06-10T06:09:41;15.98;;;14.50;;
49458;SDS011;35354;51.296;16.924;2023-06-10T06:12:07;16.73;;;15.23;;
49458;SDS011;35354;51.296;16.924;2023-06-10T06:14:33;16.40;;;14.75;;
49458;SDS011;35354;51.296;16.924;2023-06-10T06:17:02;17.83;;;16.13;;
49458;SDS011;35354;51.296;16.924;2023-06-10T06:19:28;17.83;;;15.93;;
49458;SDS011;35354;51.296;16.924;2023-06-10T06:21:53;16.30;;;14.80;;
49458;SDS011;35354;51.296;16.924;2023-06-10T06:24:19;19.88;;;16.83;;
49458;SDS011;35354;51.296;16.924;2023-06-10T06:26:44;16.83;;;15.23;;
49458;SDS011;35354;51.296;16.924;2023-06-10T06:29:10;20.20;;;18.20;;
49458;SDS011;35354;51.296;16.924;2023-06-10T06:31:35;20.75;;;17.70;;
49458;SDS011;35354;51.296;16.924;2023-06-10T06:34:01;19.10;;;17.40;;
49458;SDS011;35354;51.296;16.924;2023-06-10T06:36:27;18.10;;;16.45;;
49458;SDS011;35354;51.296;16.924;2023-06-10T06:38:52;18.75;;;17.05;;
49458;SDS011;35354;51.296;16.924;2023-06-10T06:41:17;21.08;;;19.08;;
49458;SDS011;35354;51.296;16.924;2023-06-10T06:43:43;21.13;;;19.23;;
49458;SDS011;35354;51.296;16.924;2023-06-10T06:46:08;19.92;;;18.13;;
49458;SDS011;35354;51.296;16.924;2023-06-10T06:48:34;20.02;;;18.13;;
49458;SDS011;35354;51.296;16.924;2023-06-10T06:51:00;21.27;;;19.27;;
49458;SDS011;35354;51.296;16.924;2023-06-10T06:53:25;18.73;;;17.02;;
49458;SDS011;35354;51.296;16.924;2023-06-10T06:55:50;20.83;;;18.85;;
49458;SDS011;35354;51.296;16.924;2023-06-10T06:58:16;18.55;;;16.67;;
49458;SDS011;35354;51.296;16.924;2023-06-10T07:00:41;17.40;;;15.70;;
49458;SDS011;35354;51.296;16.924;2023-06-10T07:03:07;17.08;;;15.48;;
49458;SDS011;35354;51.296;16.924;2023-06-10T07:05:32;14.73;;;13.32;;
49458;SDS011;35354;51.296;16.924;2023-06-10T07:07:58;15.95;;;14.27;;
49458;SDS011;35354;51.296;16.924;2023-06-10T07:10:24;18.92;;;14.48;;
49458;SDS011;35354;51.296;16.924;2023-06-10T07:12:50;15.25;;;13.75;;
49458;SDS011;35354;51.296;16.924;2023-06-10T07:15:16;14.75;;;13.35;;
49458;SDS011;35354;51.296;16.924;2023-06-10T07:17:42;13.90;;;12.52;;
49458;SDS011;35354;51.296;16.924;2023-06-10T07:20:07;12.82;;;11.73;;
49458;SDS011;35354;51.296;16.924;2023-06-10T07:22:33;13.23;;;11.98;;
49458;SDS011;35354;51.296;16.924;2023-06-10T07:24:58;13.55;;;12.25;;
49458;SDS011;35354;51.296;16.924;2023-06-10T07:27:24;11.52;;;10.63;;
49458;SDS011;35354;51.296;16.924;2023-06-10T07:29:50;12.60;;;11.60;;
49458;SDS011;35354;51.296;16.924;2023-06-10T07:32:16;12.40;;;11.32;;
49458;SDS011;35354;51.296;16.924;2023-06-10T07:34:41;12.98;;;11.73;;
49458;SDS011;35354;51.296;16.924;2023-06-10T07:37:07;12.80;;;11.60;;
49458;SDS011;35354;51.296;16.924;2023-06-10T07:39:33;12.55;;;11.55;;
49458;SDS011;35354;51.296;16.924;2023-06-10T07:41:59;14.52;;;13.23;;
49458;SDS011;35354;51.296;16.924;2023-06-10T07:44:24;16.92;;;15.20;;
49458;SDS011;35354;51.296;16.924;2023-06-10T07:46:49;15.15;;;13.80;;
49458;SDS011;35354;51.296;16.924;2023-06-10T07:49:15;15.15;;;13.95;;
49458;SDS011;35354;51.296;16.924;2023-06-10T07:51:40;18.83;;;16.92;;
49458;SDS011;35354;51.296;16.924;2023-06-10T07:54:05;17.08;;;15.48;;
49458;SDS011;35354;51.296;16.924;2023-06-10T07:56:31;18.17;;;16.58;;
49458;SDS011;35354;51.296;16.924;2023-06-10T07:58:56;18.63;;;16.92;;
49458;SDS011;35354;51.296;16.924;2023-06-10T08:01:22;17.30;;;15.75;;
49458;SDS011;35354;51.296;16.924;2023-06-10T08:03:48;18.40;;;16.70;;
49458;SDS011;35354;51.296;16.924;2023-06-10T08:06:14;18.42;;;16.92;;
49458;SDS011;35354;51.296;16.924;2023-06-10T08:08:39;23.27;;;21.27;;
49458;SDS011;35354;51.296;16.924;2023-06-10T08:11:08;19.02;;;17.45;;
49458;SDS011;35354;51.296;16.924;2023-06-10T08:13:37;22.58;;;20.67;;
49458;SDS011;35354;51.296;16.924;2023-06-10T08:16:02;24.35;;;22.10;;
49458;SDS011;35354;51.296;16.924;2023-06-10T08:18:28;21.98;;;20.02;;
49458;SDS011;35354;51.296;16.924;2023-06-10T08:20:53;20.67;;;18.88;;
49458;SDS011;35354;51.296;16.924;2023-06-10T08:23:19;22.40;;;20.30;;
49458;SDS011;35354;51.296;16.924;2023-06-10T08:25:45;20.55;;;18.85;;
49458;SDS011;35354;51.296;16.924;2023-06-10T08:28:10;22.38;;;20.20;;
49458;SDS011;35354;51.296;16.924;2023-06-10T08:30:35;24.30;;;22.00;;
49458;SDS011;35354;51.296;16.924;2023-06-10T08:33:01;20.52;;;18.65;;
49458;SDS011;35354;51.296;16.924;2023-06-10T08:35:26;22.90;;;20.90;;
49458;SDS011;35354;51.296;16.924;2023-06-10T08:37:51;19.40;;;17.73;;
49458;SDS011;35354;51.296;16.924;2023-06-10T08:40:17;24.02;;;21.83;;
49458;SDS011;35354;51.296;16.924;2023-06-10T08:42:47;21.70;;;20.00;;
49458;SDS011;35354;51.296;16.924;2023-06-10T08:45:18;22.90;;;20.73;;
49458;SDS011;35354;51.296;16.924;2023-06-10T08:47:44;19.65;;;17.95;;
49458;SDS011;35354;51.296;16.924;2023-06-10T08:50:11;18.45;;;16.65;;
49458;SDS011;35354;51.296;16.924;2023-06-10T08:52:37;18.67;;;17.02;;
49458;SDS011;35354;51.296;16.924;2023-06-10T08:55:10;18.48;;;16.77;;
49458;SDS011;35354;51.296;16.924;2023-06-10T08:57:40;17.05;;;15.52;;
49458;SDS011;35354;51.296;16.924;2023-06-10T09:00:08;16.65;;;14.95;;
49458;SDS011;35354;51.296;16.924;2023-06-10T09:02:34;17.63;;;16.10;;
49458;SDS011;35354;51.296;16.924;2023-06-10T09:05:00;16.27;;;14.55;;
49458;SDS011;35354;51.296;16.924;2023-06-10T09:07:27;15.52;;;13.05;;
49458;SDS011;35354;51.296;16.924;2023-06-10T09:09:56;14.77;;;13.38;;
49458;SDS011;35354;51.296;16.924;2023-06-10T09:12:22;15.13;;;13.48;;
49458;SDS011;35354;51.296;16.924;2023-06-10T09:14:48;14.65;;;13.15;;
49458;SDS011;35354;51.296;16.924;2023-06-10T09:17:13;13.32;;;12.23;;
49458;SDS011;35354;51.296;16.924;2023-06-10T09:19:38;13.85;;;12.55;;
49458;SDS011;35354;51.296;16.924;2023-06-10T09:22:05;15.65;;;14.30;;
49458;SDS011;35354;51.296;16.924;2023-06-10T09:24:30;14.38;;;13.00;;
49458;SDS011;35354;51.296;16.924;2023-06-10T09:27:05;14.23;;;12.82;;
49458;SDS011;35354;51.296;16.924;2023-06-10T09:29:45;13.65;;;12.43;;
49458;SDS011;35354;51.296;16.924;2023-06-10T09:32:18;13.70;;;12.40;;
49458;SDS011;35354;51.296;16.924;2023-06-10T09:34:44;12.73;;;11.48;;
49458;SDS011;35354;51.296;16.924;2023-06-10T09:37:10;12.30;;;10.93;;
49458;SDS011;35354;51.296;16.924;2023-06-10T09:39:37;12.10;;;10.90;;
49458;SDS011;35354;51.296;16.924;2023-06-10T09:42:10;12.57;;;11.38;;
49458;SDS011;35354;51.296;16.924;2023-06-10T09:44:41;10.35;;;9.35;;
49458;SDS011;35354;51.296;16.924;2023-06-10T09:47:06;10.75;;;9.68;;
49458;SDS011;35354;51.296;16.924;2023-06-10T09:49:32;11.40;;;10.32;;
49458;SDS011;35354;51.296;16.924;2023-06-10T09:51:57;10.27;;;9.38;;
49458;SDS011;35354;51.296;16.924;2023-06-10T09:54:22;9.88;;;8.98;;
49458;SDS011;35354;51.296;16.924;2023-06-10T09:56:49;10.13;;;9.07;;
49458;SDS011;35354;51.296;16.924;2023-06-10T09:59:16;8.90;;;7.97;;
49458;SDS011;35354;51.296;16.924;2023-06-10T10:01:56;9.10;;;8.35;;
49458;SDS011;35354;51.296;16.924;2023-06-10T10:04:24;8.98;;;8.10;;
49458;SDS011;35354;51.296;16.924;2023-06-10T10:06:50;8.82;;;7.95;;
49458;SDS011;35354;51.296;16.924;2023-06-10T10:09:16;8.90;;;8.10;;
49458;SDS011;35354;51.296;16.924;2023-06-10T10:11:41;9.38;;;7.68;;
49458;SDS011;35354;51.296;16.924;2023-06-10T10:14:08;8.73;;;7.82;;
49458;SDS011;35354;51.296;16.924;2023-06-10T10:16:37;8.63;;;7.82;;
49458;SDS011;35354;51.296;16.924;2023-06-10T10:22:04;11.48;;;8.43;;
49458;SDS011;35354;51.296;16.924;2023-06-10T10:24:41;8.60;;;7.80;;
49458;SDS011;35354;51.296;16.924;2023-06-10T10:27:18;8.98;;;8.18;;
49458;SDS011;35354;51.296;16.924;2023-06-10T10:29:53;8.90;;;8.10;;
49458;SDS011;35354;51.296;16.924;2023-06-10T10:32:21;9.20;;;7.57;;
49458;SDS011;35354;51.296;16.924;2023-06-10T10:35:00;7.95;;;7.25;;
49458;SDS011;35354;51.296;16.924;2023-06-10T10:37:27;8.48;;;6.88;;
49458;SDS011;35354;51.296;16.924;2023-06-10T10:39:53;6.97;;;6.30;;
49458;SDS011;35354;51.296;16.924;2023-06-10T10:42:19;8.68;;;7.07;;
49458;SDS011;35354;51.296;16.924;2023-06-10T10:44:45;7.47;;;6.80;;
49458;SDS011;35354;51.296;16.924;2023-06-10T10:47:12;8.63;;;6.57;;
49458;SDS011;35354;51.296;16.924;2023-06-10T10:49:39;8.75;;;6.57;;
49458;SDS011;35354;51.296;16.924;2023-06-10T10:52:10;9.25;;;6.50;;
49458;SDS011;35354;51.296;16.924;2023-06-10T10:54:37;7.45;;;6.35;;
49458;SDS011;35354;51.296;16.924;2023-06-10T11:02:34;9.80;;;6.53;;
49458;SDS011;35354;51.296;16.924;2023-06-10T11:05:03;7.35;;;6.45;;
49458;SDS011;35354;51.296;16.924;2023-06-10T11:07:30;9.63;;;7.05;;
49458;SDS011;35354;51.296;16.924;2023-06-10T11:10:06;7.03;;;6.28;;
49458;SDS011;35354;51.296;16.924;2023-06-10T11:15:22;8.05;;;6.65;;
49458;SDS011;35354;51.296;16.924;2023-06-10T11:18:10;9.13;;;7.78;;
49458;SDS011;35354;51.296;16.924;2023-06-10T11:31:18;6.55;;;5.95;;
49458;SDS011;35354;51.296;16.924;2023-06-10T11:33:46;9.23;;;7.35;;
49458;SDS011;35354;51.296;16.924;2023-06-10T11:36:12;18.63;;;6.93;;
49458;SDS011;35354;51.296;16.924;2023-06-10T11:38:37;7.22;;;6.50;;
49458;SDS011;35354;51.296;16.924;2023-06-10T11:41:03;7.45;;;6.75;;
49458;SDS011;35354;51.296;16.924;2023-06-10T11:43:29;7.10;;;6.40;;
49458;SDS011;35354;51.296;16.924;2023-06-10T11:45:55;8.25;;;6.45;;
49458;SDS011;35354;51.296;16.924;2023-06-10T11:48:21;6.88;;;6.18;;
49458;SDS011;35354;51.296;16.924;2023-06-10T11:50:46;13.57;;;6.88;;
49458;SDS011;35354;51.296;16.924;2023-06-10T11:53:12;8.45;;;6.53;;
49458;SDS011;35354;51.296;16.924;2023-06-10T11:55:44;11.57;;;6.80;;
49458;SDS011;35354;51.296;16.924;2023-06-10T11:58:17;8.23;;;6.65;;
49458;SDS011;35354;51.296;16.924;2023-06-10T12:00:50;10.05;;;6.40;;
49458;SDS011;35354;51.296;16.924;2023-06-10T12:05:54;10.13;;;6.55;;
49458;SDS011;35354;51.296;16.924;2023-06-10T12:08:19;10.05;;;6.20;;
49458;SDS011;35354;51.296;16.924;2023-06-10T12:10:45;10.65;;;6.85;;
49458;SDS011;35354;51.296;16.924;2023-06-10T12:13:10;6.10;;;5.47;;
49458;SDS011;35354;51.296;16.924;2023-06-10T12:15:36;7.68;;;6.63;;
49458;SDS011;35354;51.296;16.924;2023-06-10T12:18:02;6.22;;;5.57;;
49458;SDS011;35354;51.296;16.924;2023-06-10T12:20:28;9.32;;;5.43;;
49458;SDS011;35354;51.296;16.924;2023-06-10T12:22:57;12.57;;;6.15;;
49458;SDS011;35354;51.296;16.924;2023-06-10T12:25:26;8.15;;;5.63;;
49458;SDS011;35354;51.296;16.924;2023-06-10T12:27:55;7.85;;;5.97;;
49458;SDS011;35354;51.296;16.924;2023-06-10T12:30:23;6.13;;;5.53;;
49458;SDS011;35354;51.296;16.924;2023-06-10T12:32:49;7.47;;;5.55;;
49458;SDS011;35354;51.296;16.924;2023-06-10T12:35:17;6.30;;;5.40;;
49458;SDS011;35354;51.296;16.924;2023-06-10T12:37:56;9.05;;;5.43;;
49458;SDS011;35354;51.296;16.924;2023-06-10T12:40:36;9.82;;;5.57;;
49458;SDS011;35354;51.296;16.924;2023-06-10T12:43:03;10.07;;;5.68;;
49458;SDS011;35354;51.296;16.924;2023-06-10T12:45:33;7.22;;;5.65;;
49458;SDS011;35354;51.296;16.924;2023-06-10T12:48:12;9.27;;;5.80;;
49458;SDS011;35354;51.296;16.924;2023-06-10T12:50:43;9.55;;;6.30;;
49458;SDS011;35354;51.296;16.924;2023-06-10T12:53:10;7.78;;;5.43;;
49458;SDS011;35354;51.296;16.924;2023-06-10T12:55:36;8.73;;;5.60;;
49458;SDS011;35354;51.296;16.924;2023-06-10T12:58:03;9.10;;;6.55;;
49458;SDS011;35354;51.296;16.924;2023-06-10T13:00:29;6.00;;;4.90;;
49458;SDS011;35354;51.296;16.924;2023-06-10T13:02:56;5.68;;;5.18;;
49458;SDS011;35354;51.296;16.924;2023-06-10T13:05:22;6.45;;;5.43;;
49458;SDS011;35354;51.296;16.924;2023-06-10T13:07:48;8.85;;;5.78;;
49458;SDS011;35354;51.296;16.924;2023-06-10T13:10:14;7.60;;;5.60;;
49458;SDS011;35354;51.296;16.924;2023-06-10T13:12:41;8.75;;;6.15;;
49458;SDS011;35354;51.296;16.924;2023-06-10T13:15:08;7.82;;;5.55;;
49458;SDS011;35354;51.296;16.924;2023-06-10T13:17:34;8.00;;;5.40;;
49458;SDS011;35354;51.296;16.924;2023-06-10T13:20:01;9.07;;;5.15;;
49458;SDS011;35354;51.296;16.924;2023-06-10T13:22:30;8.65;;;5.32;;
49458;SDS011;35354;51.296;16.924;2023-06-10T13:24:57;7.20;;;5.32;;
49458;SDS011;35354;51.296;16.924;2023-06-10T13:27:23;7.43;;;5.30;;
49458;SDS011;35354;51.296;16.924;2023-06-10T13:29:49;7.95;;;5.90;;
49458;SDS011;35354;51.296;16.924;2023-06-10T13:32:14;8.45;;;5.35;;
49458;SDS011;35354;51.296;16.924;2023-06-10T13:34:39;7.30;;;5.13;;
49458;SDS011;35354;51.296;16.924;2023-06-10T13:37:05;7.63;;;4.97;;
49458;SDS011;35354;51.296;16.924;2023-06-10T13:39:31;9.38;;;5.32;;
49458;SDS011;35354;51.296;16.924;2023-06-10T13:41:56;7.57;;;5.05;;
49458;SDS011;35354;51.296;16.924;2023-06-10T13:44:21;9.68;;;5.32;;
49458;SDS011;35354;51.296;16.924;2023-06-10T13:46:46;6.88;;;5.63;;
49458;SDS011;35354;51.296;16.924;2023-06-10T13:49:12;9.05;;;5.07;;
49458;SDS011;35354;51.296;16.924;2023-06-10T13:51:37;8.00;;;5.38;;
49458;SDS011;35354;51.296;16.924;2023-06-10T13:54:02;5.65;;;5.05;;
49458;SDS011;35354;51.296;16.924;2023-06-10T13:56:28;6.53;;;5.40;;
49458;SDS011;35354;51.296;16.924;2023-06-10T13:58:53;8.30;;;5.13;;
49458;SDS011;35354;51.296;16.924;2023-06-10T14:01:18;7.43;;;6.13;;
49458;SDS011;35354;51.296;16.924;2023-06-10T14:03:44;8.10;;;5.25;;
49458;SDS011;35354;51.296;16.924;2023-06-10T14:06:09;6.30;;;5.03;;
49458;SDS011;35354;51.296;16.924;2023-06-10T14:08:37;6.95;;;4.93;;
49458;SDS011;35354;51.296;16.924;2023-06-10T14:11:03;7.03;;;5.13;;
49458;SDS011;35354;51.296;16.924;2023-06-10T14:13:28;7.80;;;5.70;;
49458;SDS011;35354;51.296;16.924;2023-06-10T14:15:54;7.55;;;5.75;;
49458;SDS011;35354;51.296;16.924;2023-06-10T14:18:20;10.98;;;5.50;;
49458;SDS011;35354;51.296;16.924;2023-06-10T14:20:45;6.20;;;5.05;;
49458;SDS011;35354;51.296;16.924;2023-06-10T14:23:10;6.05;;;5.45;;
49458;SDS011;35354;51.296;16.924;2023-06-10T14:25:36;7.38;;;5.13;;
49458;SDS011;35354;51.296;16.924;2023-06-10T14:28:01;7.38;;;5.70;;
49458;SDS011;35354;51.296;16.924;2023-06-10T14:30:27;7.28;;;5.15;;
49458;SDS011;35354;51.296;16.924;2023-06-10T14:32:52;7.03;;;5.28;;
49458;SDS011;35354;51.296;16.924;2023-06-10T14:35:17;5.30;;;4.80;;
49458;SDS011;35354;51.296;16.924;2023-06-10T14:37:43;9.75;;;5.68;;
49458;SDS011;35354;51.296;16.924;2023-06-10T14:40:08;6.50;;;5.00;;